sensor_id;sensor_type;location;lat;lon;timestamp;pressure;altitude;pressure_sealevel;temperature;humidity
39954;BME280;25631;51.516;-0.470;2023-11-21T00:00:37;101189.81;;;9.95;41.27
39954;BME280;25631;51.516;-0.470;2023-11-21T00:03:13;101194.02;;;10.44;41.24
39954;BME280;25631;51.516;-0.470;2023-11-21T00:05:49;101192.56;;;10.58;41.44
39954;BME280;25631;51.516;-0.470;2023-11-21T00:08:26;101198.83;;;10.43;41.75
39954;BME280;25631;51.516;-0.470;2023-11-21T00:11:02;101202.07;;;10.34;41.92
39954;BME280;25631;51.516;-0.470;2023-11-21T00:13:39;101206.99;;;10.37;42.07
39954;BME280;25631;51.516;-0.470;2023-11-21T00:16:15;101207.94;;;10.35;42.04
39954;BME280;25631;51.516;-0.470;2023-11-21T00:18:52;101212.10;;;10.23;41.95
39954;BME280;25631;51.516;-0.470;2023-11-21T00:21:28;101219.37;;;10.49;41.98
39954;BME280;25631;51.516;-0.470;2023-11-21T00:24:05;101223.33;;;10.40;41.97
39954;BME280;25631;51.516;-0.470;2023-11-21T00:26:42;101230.77;;;10.32;42.23
39954;BME280;25631;51.516;-0.470;2023-11-21T00:29:18;101231.35;;;10.43;42.16
39954;BME280;25631;51.516;-0.470;2023-11-21T00:31:55;101229.55;;;10.42;42.07
39954;BME280;25631;51.516;-0.470;2023-11-21T00:34:31;101230.89;;;10.48;42.15
39954;BME280;25631;51.516;-0.470;2023-11-21T00:37:08;101238.42;;;10.50;42.03
39954;BME280;25631;51.516;-0.470;2023-11-21T00:39:44;101243.78;;;10.56;42.00
39954;BME280;25631;51.516;-0.470;2023-11-21T00:42:20;101248.02;;;10.49;42.35
39954;BME280;25631;51.516;-0.470;2023-11-21T00:44:56;101251.94;;;10.49;42.33
39954;BME280;25631;51.516;-0.470;2023-11-21T00:47:36;101254.47;;;10.50;42.34
39954;BME280;25631;51.516;-0.470;2023-11-21T00:50:12;101256.22;;;10.54;42.42
39954;BME280;25631;51.516;-0.470;2023-11-21T00:52:49;101253.32;;;10.65;42.42
39954;BME280;25631;51.516;-0.470;2023-11-21T00:55:25;101249.15;;;10.47;42.52
39954;BME280;25631;51.516;-0.470;2023-11-21T00:58:01;101252.67;;;10.56;42.57
39954;BME280;25631;51.516;-0.470;2023-11-21T01:00:38;101252.78;;;10.51;42.49
39954;BME280;25631;51.516;-0.470;2023-11-21T01:03:14;101255.03;;;10.54;42.49
39954;BME280;25631;51.516;-0.470;2023-11-21T01:05:51;101258.78;;;10.69;42.43
39954;BME280;25631;51.516;-0.470;2023-11-21T01:08:27;101261.68;;;10.72;42.49
39954;BME280;25631;51.516;-0.470;2023-11-21T01:11:04;101265.52;;;10.87;42.53
39954;BME280;25631;51.516;-0.470;2023-11-21T01:13:41;101270.22;;;10.84;42.56
39954;BME280;25631;51.516;-0.470;2023-11-21T01:16:17;101276.22;;;10.67;42.61
39954;BME280;25631;51.516;-0.470;2023-11-21T01:18:54;101277.25;;;10.63;42.67
39954;BME280;25631;51.516;-0.470;2023-11-21T01:21:31;101281.47;;;10.59;42.77
39954;BME280;25631;51.516;-0.470;2023-11-21T01:24:08;101285.49;;;10.73;42.84
39954;BME280;25631;51.516;-0.470;2023-11-21T01:26:44;101291.96;;;10.73;43.02
39954;BME280;25631;51.516;-0.470;2023-11-21T01:29:20;101295.72;;;10.57;43.02
39954;BME280;25631;51.516;-0.470;2023-11-21T01:31:57;101298.28;;;10.71;43.08
39954;BME280;25631;51.516;-0.470;2023-11-21T01:34:33;101300.99;;;10.67;43.21
39954;BME280;25631;51.516;-0.470;2023-11-21T01:37:09;101305.08;;;10.67;43.16
39954;BME280;25631;51.516;-0.470;2023-11-21T01:39:46;101311.99;;;10.52;43.25
39954;BME280;25631;51.516;-0.470;2023-11-21T01:42:22;101315.61;;;10.52;43.29
39954;BME280;25631;51.516;-0.470;2023-11-21T01:44:59;101319.69;;;10.50;43.29
39954;BME280;25631;51.516;-0.470;2023-11-21T01:47:35;101322.02;;;10.43;43.32
39954;BME280;25631;51.516;-0.470;2023-11-21T01:50:15;101325.65;;;10.38;43.24
39954;BME280;25631;51.516;-0.470;2023-11-21T01:52:52;101325.70;;;10.58;43.30
39954;BME280;25631;51.516;-0.470;2023-11-21T01:55:28;101326.50;;;10.53;43.30
39954;BME280;25631;51.516;-0.470;2023-11-21T01:58:05;101330.20;;;10.47;43.28
39954;BME280;25631;51.516;-0.470;2023-11-21T02:00:41;101334.11;;;10.72;43.23
39954;BME280;25631;51.516;-0.470;2023-11-21T02:03:18;101335.40;;;10.76;43.19
39954;BME280;25631;51.516;-0.470;2023-11-21T02:05:54;101333.75;;;10.68;43.16
39954;BME280;25631;51.516;-0.470;2023-11-21T02:08:31;101338.35;;;10.53;43.08
39954;BME280;25631;51.516;-0.470;2023-11-21T02:11:07;101346.63;;;10.69;43.10
39954;BME280;25631;51.516;-0.470;2023-11-21T02:13:44;101348.82;;;10.67;43.02
39954;BME280;25631;51.516;-0.470;2023-11-21T02:16:20;101345.88;;;10.74;43.01
39954;BME280;25631;51.516;-0.470;2023-11-21T02:18:57;101345.73;;;10.52;42.98
39954;BME280;25631;51.516;-0.470;2023-11-21T02:21:34;101351.49;;;10.81;42.94
39954;BME280;25631;51.516;-0.470;2023-11-21T02:24:11;101353.89;;;10.72;42.90
39954;BME280;25631;51.516;-0.470;2023-11-21T02:26:47;101358.57;;;10.56;42.89
39954;BME280;25631;51.516;-0.470;2023-11-21T02:29:24;101362.27;;;10.63;42.80
39954;BME280;25631;51.516;-0.470;2023-11-21T02:32:00;101369.50;;;10.51;42.78
39954;BME280;25631;51.516;-0.470;2023-11-21T02:34:37;101374.26;;;10.68;42.75
39954;BME280;25631;51.516;-0.470;2023-11-21T02:37:13;101378.00;;;10.54;42.80
39954;BME280;25631;51.516;-0.470;2023-11-21T02:39:50;101382.77;;;10.62;42.86
39954;BME280;25631;51.516;-0.470;2023-11-21T02:42:26;101385.82;;;10.46;42.93
39954;BME280;25631;51.516;-0.470;2023-11-21T02:45:03;101388.85;;;10.42;43.03
39954;BME280;25631;51.516;-0.470;2023-11-21T02:47:40;101386.94;;;10.41;43.07
39954;BME280;25631;51.516;-0.470;2023-11-21T02:50:16;101385.71;;;10.50;43.12
39954;BME280;25631;51.516;-0.470;2023-11-21T02:52:52;101385.71;;;10.34;43.17
39954;BME280;25631;51.516;-0.470;2023-11-21T02:55:29;101389.54;;;10.44;43.19
39954;BME280;25631;51.516;-0.470;2023-11-21T02:58:05;101396.58;;;10.28;43.25
39954;BME280;25631;51.516;-0.470;2023-11-21T03:00:41;101400.83;;;10.42;43.28
39954;BME280;25631;51.516;-0.470;2023-11-21T03:03:18;101404.35;;;10.40;43.34
39954;BME280;25631;51.516;-0.470;2023-11-21T03:05:54;101411.27;;;10.27;43.40
39954;BME280;25631;51.516;-0.470;2023-11-21T03:08:30;101414.61;;;10.39;43.40
39954;BME280;25631;51.516;-0.470;2023-11-21T03:11:07;101411.74;;;10.42;43.45
39954;BME280;25631;51.516;-0.470;2023-11-21T03:13:43;101420.10;;;10.37;43.61
39954;BME280;25631;51.516;-0.470;2023-11-21T03:16:19;101419.86;;;10.09;43.70
39954;BME280;25631;51.516;-0.470;2023-11-21T03:18:56;101421.56;;;10.25;43.60
39954;BME280;25631;51.516;-0.470;2023-11-21T03:21:32;101427.93;;;10.31;43.68
39954;BME280;25631;51.516;-0.470;2023-11-21T03:24:09;101431.94;;;10.12;43.93
39954;BME280;25631;51.516;-0.470;2023-11-21T03:26:45;101427.09;;;9.97;44.12
39954;BME280;25631;51.516;-0.470;2023-11-21T03:29:22;101432.81;;;9.58;44.28
39954;BME280;25631;51.516;-0.470;2023-11-21T03:31:59;101444.53;;;9.58;44.21
39954;BME280;25631;51.516;-0.470;2023-11-21T03:34:35;101444.89;;;9.29;44.26
39954;BME280;25631;51.516;-0.470;2023-11-21T03:37:11;101443.87;;;9.46;44.14
39954;BME280;25631;51.516;-0.470;2023-11-21T03:39:48;101445.13;;;9.20;44.26
39954;BME280;25631;51.516;-0.470;2023-11-21T03:42:24;101451.36;;;9.44;44.18
39954;BME280;25631;51.516;-0.470;2023-11-21T03:45:01;101454.86;;;9.37;44.05
39954;BME280;25631;51.516;-0.470;2023-11-21T03:47:38;101457.52;;;9.84;43.88
39954;BME280;25631;51.516;-0.470;2023-11-21T03:50:14;101458.82;;;9.49;43.78
39954;BME280;25631;51.516;-0.470;2023-11-21T03:52:50;101462.69;;;9.62;43.74
39954;BME280;25631;51.516;-0.470;2023-11-21T03:55:27;101467.33;;;9.40;43.73
39954;BME280;25631;51.516;-0.470;2023-11-21T03:58:03;101474.76;;;9.41;43.71
39954;BME280;25631;51.516;-0.470;2023-11-21T04:00:39;101480.43;;;9.29;43.60
39954;BME280;25631;51.516;-0.470;2023-11-21T04:03:15;101481.68;;;9.28;43.52
39954;BME280;25631;51.516;-0.470;2023-11-21T04:05:52;101484.51;;;9.32;43.45
39954;BME280;25631;51.516;-0.470;2023-11-21T04:08:28;101486.15;;;9.49;43.37
39954;BME280;25631;51.516;-0.470;2023-11-21T04:11:05;101489.85;;;9.44;43.29
39954;BME280;25631;51.516;-0.470;2023-11-21T04:13:42;101491.31;;;9.46;43.17
39954;BME280;25631;51.516;-0.470;2023-11-21T04:16:18;101494.91;;;9.76;43.06
39954;BME280;25631;51.516;-0.470;2023-11-21T04:18:54;101501.65;;;9.48;42.98
39954;BME280;25631;51.516;-0.470;2023-11-21T04:21:31;101508.80;;;9.50;42.84
39954;BME280;25631;51.516;-0.470;2023-11-21T04:24:07;101512.02;;;9.55;42.73
39954;BME280;25631;51.516;-0.470;2023-11-21T04:26:44;101520.07;;;9.85;42.65
39954;BME280;25631;51.516;-0.470;2023-11-21T04:29:20;101526.92;;;9.58;42.65
39954;BME280;25631;51.516;-0.470;2023-11-21T04:31:57;101534.98;;;9.31;42.84
39954;BME280;25631;51.516;-0.470;2023-11-21T04:34:33;101538.18;;;9.35;42.83
39954;BME280;25631;51.516;-0.470;2023-11-21T04:37:10;101543.57;;;9.62;42.87
39954;BME280;25631;51.516;-0.470;2023-11-21T04:39:46;101545.81;;;9.62;42.88
39954;BME280;25631;51.516;-0.470;2023-11-21T04:42:22;101548.42;;;9.45;42.97
39954;BME280;25631;51.516;-0.470;2023-11-21T04:44:59;101545.30;;;9.43;43.00
39954;BME280;25631;51.516;-0.470;2023-11-21T04:47:35;101552.33;;;9.39;43.16
39954;BME280;25631;51.516;-0.470;2023-11-21T04:50:11;101560.32;;;9.36;43.15
39954;BME280;25631;51.516;-0.470;2023-11-21T04:52:48;101564.11;;;9.22;43.04
39954;BME280;25631;51.516;-0.470;2023-11-21T04:55:24;101562.76;;;9.43;42.98
39954;BME280;25631;51.516;-0.470;2023-11-21T04:58:00;101561.20;;;9.54;43.04
39954;BME280;25631;51.516;-0.470;2023-11-21T05:00:36;101557.72;;;9.96;43.04
39954;BME280;25631;51.516;-0.470;2023-11-21T05:03:13;101558.79;;;9.47;43.08
39954;BME280;25631;51.516;-0.470;2023-11-21T05:05:49;101560.69;;;9.50;42.99
39954;BME280;25631;51.516;-0.470;2023-11-21T05:08:25;101568.61;;;9.52;43.03
39954;BME280;25631;51.516;-0.470;2023-11-21T05:11:02;101574.36;;;9.55;43.17
39954;BME280;25631;51.516;-0.470;2023-11-21T05:13:38;101573.40;;;9.56;43.03
39954;BME280;25631;51.516;-0.470;2023-11-21T05:16:14;101569.38;;;9.48;43.02
39954;BME280;25631;51.516;-0.470;2023-11-21T05:18:51;101573.14;;;9.48;42.89
39954;BME280;25631;51.516;-0.470;2023-11-21T05:21:27;101577.67;;;9.53;42.78
39954;BME280;25631;51.516;-0.470;2023-11-21T05:24:05;101581.83;;;9.25;42.64
39954;BME280;25631;51.516;-0.470;2023-11-21T05:26:41;101587.87;;;9.40;42.53
39954;BME280;25631;51.516;-0.470;2023-11-21T05:29:17;101589.00;;;9.27;42.40
39954;BME280;25631;51.516;-0.470;2023-11-21T05:31:54;101596.94;;;9.15;42.25
39954;BME280;25631;51.516;-0.470;2023-11-21T05:34:30;101603.42;;;9.29;42.19
39954;BME280;25631;51.516;-0.470;2023-11-21T05:37:06;101606.82;;;9.42;42.04
39954;BME280;25631;51.516;-0.470;2023-11-21T05:39:43;101613.50;;;9.29;42.09
39954;BME280;25631;51.516;-0.470;2023-11-21T05:42:19;101623.45;;;9.04;41.92
39954;BME280;25631;51.516;-0.470;2023-11-21T05:44:55;101623.04;;;8.85;41.84
39954;BME280;25631;51.516;-0.470;2023-11-21T05:47:32;101630.52;;;9.23;41.72
39954;BME280;25631;51.516;-0.470;2023-11-21T05:50:09;101631.01;;;9.13;41.66
39954;BME280;25631;51.516;-0.470;2023-11-21T05:52:47;101641.62;;;9.07;41.46
39954;BME280;25631;51.516;-0.470;2023-11-21T05:55:23;101648.46;;;8.89;41.48
39954;BME280;25631;51.516;-0.470;2023-11-21T05:58:00;101661.54;;;8.91;41.39
39954;BME280;25631;51.516;-0.470;2023-11-21T06:00:36;101664.91;;;9.04;41.33
39954;BME280;25631;51.516;-0.470;2023-11-21T06:03:13;101660.74;;;8.92;41.42
39954;BME280;25631;51.516;-0.470;2023-11-21T06:05:49;101666.03;;;8.82;41.59
39954;BME280;25631;51.516;-0.470;2023-11-21T06:08:25;101663.94;;;8.76;41.38
39954;BME280;25631;51.516;-0.470;2023-11-21T06:11:02;101666.18;;;8.88;41.28
39954;BME280;25631;51.516;-0.470;2023-11-21T06:13:38;101679.98;;;9.06;41.23
39954;BME280;25631;51.516;-0.470;2023-11-21T06:16:15;101685.90;;;8.41;41.38
39954;BME280;25631;51.516;-0.470;2023-11-21T06:18:51;101692.84;;;8.84;40.93
39954;BME280;25631;51.516;-0.470;2023-11-21T06:21:28;101698.86;;;8.75;40.76
39954;BME280;25631;51.516;-0.470;2023-11-21T06:24:04;101699.95;;;8.67;40.67
39954;BME280;25631;51.516;-0.470;2023-11-21T06:26:41;101702.26;;;9.07;40.51
39954;BME280;25631;51.516;-0.470;2023-11-21T06:29:17;101703.31;;;8.35;40.48
39954;BME280;25631;51.516;-0.470;2023-11-21T06:31:54;101708.58;;;8.54;40.40
39954;BME280;25631;51.516;-0.470;2023-11-21T06:34:30;101710.85;;;8.54;40.20
39954;BME280;25631;51.516;-0.470;2023-11-21T06:37:06;101709.38;;;8.69;40.23
39954;BME280;25631;51.516;-0.470;2023-11-21T06:39:42;101705.82;;;8.43;40.26
39954;BME280;25631;51.516;-0.470;2023-11-21T06:42:19;101711.32;;;8.40;40.14
39954;BME280;25631;51.516;-0.470;2023-11-21T06:44:56;101711.91;;;8.82;40.10
39954;BME280;25631;51.516;-0.470;2023-11-21T06:47:33;101715.80;;;8.50;39.98
39954;BME280;25631;51.516;-0.470;2023-11-21T06:50:10;101718.90;;;8.40;39.99
39954;BME280;25631;51.516;-0.470;2023-11-21T06:52:46;101732.33;;;8.55;39.88
39954;BME280;25631;51.516;-0.470;2023-11-21T06:55:22;101736.77;;;8.82;39.82
39954;BME280;25631;51.516;-0.470;2023-11-21T06:57:59;101741.04;;;8.64;39.90
39954;BME280;25631;51.516;-0.470;2023-11-21T07:00:35;101741.39;;;8.70;39.73
39954;BME280;25631;51.516;-0.470;2023-11-21T07:03:11;101747.56;;;8.86;39.61
39954;BME280;25631;51.516;-0.470;2023-11-21T07:05:48;101750.15;;;8.74;39.59
39954;BME280;25631;51.516;-0.470;2023-11-21T07:08:24;101759.46;;;8.44;39.70
39954;BME280;25631;51.516;-0.470;2023-11-21T07:11:01;101755.78;;;8.37;39.62
39954;BME280;25631;51.516;-0.470;2023-11-21T07:13:38;101760.32;;;8.72;39.59
39954;BME280;25631;51.516;-0.470;2023-11-21T07:16:14;101759.75;;;8.56;39.56
39954;BME280;25631;51.516;-0.470;2023-11-21T07:18:50;101770.68;;;8.58;39.54
39954;BME280;25631;51.516;-0.470;2023-11-21T07:21:27;101778.77;;;8.62;39.54
39954;BME280;25631;51.516;-0.470;2023-11-21T07:24:04;101783.95;;;8.72;39.56
39954;BME280;25631;51.516;-0.470;2023-11-21T07:26:40;101785.06;;;8.38;39.55
39954;BME280;25631;51.516;-0.470;2023-11-21T07:29:17;101788.45;;;8.20;39.67
39954;BME280;25631;51.516;-0.470;2023-11-21T07:31:53;101793.21;;;8.70;39.60
39954;BME280;25631;51.516;-0.470;2023-11-21T07:34:30;101794.31;;;8.30;39.86
39954;BME280;25631;51.516;-0.470;2023-11-21T07:37:06;101796.71;;;8.58;39.75
39954;BME280;25631;51.516;-0.470;2023-11-21T07:39:43;101805.23;;;8.51;39.86
39954;BME280;25631;51.516;-0.470;2023-11-21T07:42:19;101808.28;;;8.48;39.82
39954;BME280;25631;51.516;-0.470;2023-11-21T07:44:56;101816.11;;;8.58;39.92
39954;BME280;25631;51.516;-0.470;2023-11-21T07:47:32;101824.77;;;8.48;40.03
39954;BME280;25631;51.516;-0.470;2023-11-21T07:50:09;101829.14;;;8.66;39.98
39954;BME280;25631;51.516;-0.470;2023-11-21T07:52:46;101839.01;;;8.91;40.07
39954;BME280;25631;51.516;-0.470;2023-11-21T07:55:22;101836.31;;;8.60;40.15
39954;BME280;25631;51.516;-0.470;2023-11-21T07:57:59;101834.82;;;8.70;40.05
39954;BME280;25631;51.516;-0.470;2023-11-21T08:00:35;101839.92;;;8.75;39.98
39954;BME280;25631;51.516;-0.470;2023-11-21T08:03:13;101839.61;;;8.57;40.01
39954;BME280;25631;51.516;-0.470;2023-11-21T08:05:49;101846.06;;;8.73;39.95
39954;BME280;25631;51.516;-0.470;2023-11-21T08:08:25;101851.24;;;8.41;39.99
39954;BME280;25631;51.516;-0.470;2023-11-21T08:11:02;101855.31;;;8.70;39.85
39954;BME280;25631;51.516;-0.470;2023-11-21T08:13:38;101861.32;;;8.76;39.87
39954;BME280;25631;51.516;-0.470;2023-11-21T08:16:15;101864.83;;;8.90;39.89
39954;BME280;25631;51.516;-0.470;2023-11-21T08:18:51;101875.33;;;8.86;39.88
39954;BME280;25631;51.516;-0.470;2023-11-21T08:21:27;101876.11;;;8.67;39.84
39954;BME280;25631;51.516;-0.470;2023-11-21T08:24:05;101879.54;;;8.74;39.86
39954;BME280;25631;51.516;-0.470;2023-11-21T08:26:41;101879.89;;;8.81;39.88
39954;BME280;25631;51.516;-0.470;2023-11-21T08:29:18;101881.26;;;8.75;39.81
39954;BME280;25631;51.516;-0.470;2023-11-21T08:31:54;101880.48;;;8.71;39.80
39954;BME280;25631;51.516;-0.470;2023-11-21T08:34:30;101886.87;;;8.67;39.85
39954;BME280;25631;51.516;-0.470;2023-11-21T08:37:07;101889.56;;;8.57;40.12
39954;BME280;25631;51.516;-0.470;2023-11-21T08:39:44;101891.48;;;8.66;40.10
39954;BME280;25631;51.516;-0.470;2023-11-21T08:42:20;101888.51;;;8.56;40.25
39954;BME280;25631;51.516;-0.470;2023-11-21T08:44:56;101891.29;;;8.57;40.27
39954;BME280;25631;51.516;-0.470;2023-11-21T08:47:32;101890.91;;;8.66;40.24
39954;BME280;25631;51.516;-0.470;2023-11-21T08:50:09;101894.78;;;8.68;40.43
39954;BME280;25631;51.516;-0.470;2023-11-21T08:52:47;101891.85;;;8.69;40.44
39954;BME280;25631;51.516;-0.470;2023-11-21T08:55:23;101894.14;;;8.90;40.50
39954;BME280;25631;51.516;-0.470;2023-11-21T08:58:00;101899.32;;;8.71;40.53
39954;BME280;25631;51.516;-0.470;2023-11-21T09:00:36;101903.88;;;8.71;40.73
39954;BME280;25631;51.516;-0.470;2023-11-21T09:03:12;101910.16;;;8.75;40.66
39954;BME280;25631;51.516;-0.470;2023-11-21T09:05:49;101920.13;;;8.89;40.86
39954;BME280;25631;51.516;-0.470;2023-11-21T09:08:25;101925.37;;;8.67;40.88
39954;BME280;25631;51.516;-0.470;2023-11-21T09:11:01;101927.92;;;8.52;41.06
39954;BME280;25631;51.516;-0.470;2023-11-21T09:13:38;101929.02;;;8.55;41.04
39954;BME280;25631;51.516;-0.470;2023-11-21T09:16:14;101932.69;;;8.59;41.08
39954;BME280;25631;51.516;-0.470;2023-11-21T09:18:51;101940.11;;;8.63;41.18
39954;BME280;25631;51.516;-0.470;2023-11-21T09:21:27;101942.63;;;8.74;41.14
39954;BME280;25631;51.516;-0.470;2023-11-21T09:24:04;101947.01;;;9.01;41.05
39954;BME280;25631;51.516;-0.470;2023-11-21T09:26:41;101949.82;;;8.93;41.06
39954;BME280;25631;51.516;-0.470;2023-11-21T09:29:17;101953.32;;;8.87;40.97
39954;BME280;25631;51.516;-0.470;2023-11-21T09:31:53;101958.59;;;9.02;40.94
39954;BME280;25631;51.516;-0.470;2023-11-21T09:34:29;101962.50;;;8.79;41.17
39954;BME280;25631;51.516;-0.470;2023-11-21T09:37:07;101964.18;;;9.07;41.04
39954;BME280;25631;51.516;-0.470;2023-11-21T09:39:43;101965.74;;;9.02;40.97
39954;BME280;25631;51.516;-0.470;2023-11-21T09:42:23;101968.58;;;9.13;41.07
39954;BME280;25631;51.516;-0.470;2023-11-21T09:45:05;101974.57;;;9.07;41.19
39954;BME280;25631;51.516;-0.470;2023-11-21T09:47:44;101975.87;;;9.05;41.25
39954;BME280;25631;51.516;-0.470;2023-11-21T09:50:22;101977.22;;;8.83;41.24
39954;BME280;25631;51.516;-0.470;2023-11-21T09:53:06;101981.51;;;8.82;41.32
39954;BME280;25631;51.516;-0.470;2023-11-21T09:55:46;101990.68;;;9.08;41.42
39954;BME280;25631;51.516;-0.470;2023-11-21T09:58:23;101994.07;;;8.87;41.49
39954;BME280;25631;51.516;-0.470;2023-11-21T10:01:01;101997.34;;;9.10;41.47
39954;BME280;25631;51.516;-0.470;2023-11-21T10:03:37;102003.22;;;8.84;41.57
39954;BME280;25631;51.516;-0.470;2023-11-21T10:06:14;102001.51;;;9.13;41.62
39954;BME280;25631;51.516;-0.470;2023-11-21T10:08:51;102006.99;;;9.04;41.61
39954;BME280;25631;51.516;-0.470;2023-11-21T10:11:29;102004.39;;;8.94;41.59
39954;BME280;25631;51.516;-0.470;2023-11-21T10:14:06;102005.83;;;9.16;41.61
39954;BME280;25631;51.516;-0.470;2023-11-21T10:16:44;102004.80;;;8.79;41.81
39954;BME280;25631;51.516;-0.470;2023-11-21T10:19:22;102003.12;;;8.98;41.64
39954;BME280;25631;51.516;-0.470;2023-11-21T10:21:59;102001.02;;;8.80;41.84
39954;BME280;25631;51.516;-0.470;2023-11-21T10:24:37;102004.52;;;9.23;41.85
39954;BME280;25631;51.516;-0.470;2023-11-21T10:27:13;102006.83;;;9.49;41.73
39954;BME280;25631;51.516;-0.470;2023-11-21T10:29:51;102009.58;;;9.33;41.68
39954;BME280;25631;51.516;-0.470;2023-11-21T10:32:28;102011.76;;;9.23;41.77
39954;BME280;25631;51.516;-0.470;2023-11-21T10:35:05;102014.88;;;9.41;41.75
39954;BME280;25631;51.516;-0.470;2023-11-21T10:37:42;102009.93;;;9.45;41.74
39954;BME280;25631;51.516;-0.470;2023-11-21T10:40:20;102018.08;;;9.06;41.73
39954;BME280;25631;51.516;-0.470;2023-11-21T10:43:06;102014.62;;;9.43;41.73
39954;BME280;25631;51.516;-0.470;2023-11-21T10:45:43;102017.18;;;9.45;41.71
39954;BME280;25631;51.516;-0.470;2023-11-21T10:48:20;102022.12;;;9.49;41.67
39954;BME280;25631;51.516;-0.470;2023-11-21T10:50:57;102023.67;;;9.27;41.82
39954;BME280;25631;51.516;-0.470;2023-11-21T10:53:33;102027.75;;;9.54;41.71
39954;BME280;25631;51.516;-0.470;2023-11-21T10:56:13;102025.44;;;9.31;41.90
39954;BME280;25631;51.516;-0.470;2023-11-21T10:58:50;102022.70;;;9.30;41.80
39954;BME280;25631;51.516;-0.470;2023-11-21T11:01:28;102023.25;;;9.63;41.85
39954;BME280;25631;51.516;-0.470;2023-11-21T11:04:06;102024.94;;;9.75;41.84
39954;BME280;25631;51.516;-0.470;2023-11-21T11:06:44;102024.57;;;10.04;41.89
39954;BME280;25631;51.516;-0.470;2023-11-21T11:09:22;102023.03;;;9.57;41.94
39954;BME280;25631;51.516;-0.470;2023-11-21T11:11:58;102021.87;;;9.83;42.02
39954;BME280;25631;51.516;-0.470;2023-11-21T11:14:35;102022.46;;;9.70;41.99
39954;BME280;25631;51.516;-0.470;2023-11-21T11:17:13;102021.72;;;9.85;42.02
39954;BME280;25631;51.516;-0.470;2023-11-21T11:19:50;102023.02;;;9.61;41.97
39954;BME280;25631;51.516;-0.470;2023-11-21T11:22:36;102028.52;;;9.68;41.98
39954;BME280;25631;51.516;-0.470;2023-11-21T11:25:32;102025.06;;;9.70;42.05
39954;BME280;25631;51.516;-0.470;2023-11-21T11:28:14;102030.80;;;9.57;42.02
39954;BME280;25631;51.516;-0.470;2023-11-21T11:31:14;102033.12;;;9.84;42.08
39954;BME280;25631;51.516;-0.470;2023-11-21T11:33:58;102031.59;;;9.89;42.06
39954;BME280;25631;51.516;-0.470;2023-11-21T11:36:39;102030.58;;;9.82;42.00
39954;BME280;25631;51.516;-0.470;2023-11-21T11:39:27;102032.78;;;9.90;41.94
39954;BME280;25631;51.516;-0.470;2023-11-21T11:42:07;102032.99;;;9.98;42.06
39954;BME280;25631;51.516;-0.470;2023-11-21T11:44:49;102030.69;;;10.04;42.02
39954;BME280;25631;51.516;-0.470;2023-11-21T11:47:28;102035.94;;;10.02;42.09
39954;BME280;25631;51.516;-0.470;2023-11-21T11:50:05;102038.49;;;10.15;42.06
39954;BME280;25631;51.516;-0.470;2023-11-21T11:52:43;102042.31;;;10.21;42.09
39954;BME280;25631;51.516;-0.470;2023-11-21T11:55:21;102041.66;;;10.07;42.33
39954;BME280;25631;51.516;-0.470;2023-11-21T11:57:58;102043.53;;;10.10;42.39
39954;BME280;25631;51.516;-0.470;2023-11-21T12:00:36;102043.73;;;10.25;42.44
39954;BME280;25631;51.516;-0.470;2023-11-21T12:03:13;102049.87;;;10.14;42.59
39954;BME280;25631;51.516;-0.470;2023-11-21T12:05:50;102054.53;;;10.39;42.56
39954;BME280;25631;51.516;-0.470;2023-11-21T12:08:28;102058.28;;;10.36;42.64
39954;BME280;25631;51.516;-0.470;2023-11-21T12:11:05;102064.47;;;10.51;42.80
39954;BME280;25631;51.516;-0.470;2023-11-21T12:13:42;102063.76;;;10.24;42.89
39954;BME280;25631;51.516;-0.470;2023-11-21T12:16:19;102067.26;;;10.45;42.88
39954;BME280;25631;51.516;-0.470;2023-11-21T12:18:55;102066.94;;;10.25;43.10
39954;BME280;25631;51.516;-0.470;2023-11-21T12:21:32;102075.55;;;10.40;43.01
39954;BME280;25631;51.516;-0.470;2023-11-21T12:24:09;102084.09;;;10.51;43.12
39954;BME280;25631;51.516;-0.470;2023-11-21T12:26:46;102084.59;;;10.51;43.16
39954;BME280;25631;51.516;-0.470;2023-11-21T12:29:22;102090.09;;;10.62;43.16
39954;BME280;25631;51.516;-0.470;2023-11-21T12:31:58;102094.15;;;10.41;43.12
39954;BME280;25631;51.516;-0.470;2023-11-21T12:34:35;102096.97;;;10.52;43.42
39954;BME280;25631;51.516;-0.470;2023-11-21T12:37:11;102101.59;;;10.66;43.38
39954;BME280;25631;51.516;-0.470;2023-11-21T12:39:48;102107.78;;;10.64;43.47
39954;BME280;25631;51.516;-0.470;2023-11-21T12:42:24;102123.14;;;10.60;43.51
39954;BME280;25631;51.516;-0.470;2023-11-21T12:45:10;102121.39;;;10.62;43.67
39954;BME280;25631;51.516;-0.470;2023-11-21T12:47:55;102120.06;;;10.65;43.85
39954;BME280;25631;51.516;-0.470;2023-11-21T12:50:33;102122.68;;;10.47;43.81
39954;BME280;25631;51.516;-0.470;2023-11-21T12:53:11;102129.15;;;10.67;43.86
39954;BME280;25631;51.516;-0.470;2023-11-21T12:55:48;102127.28;;;10.69;43.89
39954;BME280;25631;51.516;-0.470;2023-11-21T12:58:24;102131.51;;;10.41;43.96
39954;BME280;25631;51.516;-0.470;2023-11-21T13:01:01;102143.93;;;10.43;44.06
39954;BME280;25631;51.516;-0.470;2023-11-21T13:03:37;102148.45;;;10.42;44.11
39954;BME280;25631;51.516;-0.470;2023-11-21T13:06:14;102154.51;;;10.20;44.22
39954;BME280;25631;51.516;-0.470;2023-11-21T13:08:51;102158.68;;;10.21;44.21
39954;BME280;25631;51.516;-0.470;2023-11-21T13:11:27;102165.19;;;10.15;44.19
39954;BME280;25631;51.516;-0.470;2023-11-21T13:14:04;102170.85;;;10.05;44.18
39954;BME280;25631;51.516;-0.470;2023-11-21T13:16:40;102168.84;;;9.85;44.04
39954;BME280;25631;51.516;-0.470;2023-11-21T13:19:17;102166.84;;;9.81;44.02
39954;BME280;25631;51.516;-0.470;2023-11-21T13:21:53;102162.25;;;9.76;43.79
39954;BME280;25631;51.516;-0.470;2023-11-21T13:24:29;102173.94;;;9.42;43.82
39954;BME280;25631;51.516;-0.470;2023-11-21T13:27:05;102174.74;;;9.59;43.63
39954;BME280;25631;51.516;-0.470;2023-11-21T13:29:42;102181.29;;;9.36;43.64
39954;BME280;25631;51.516;-0.470;2023-11-21T13:32:18;102189.89;;;9.35;43.62
39954;BME280;25631;51.516;-0.470;2023-11-21T13:34:54;102186.21;;;9.32;43.40